Terminal Aerodrome Forecast
Issued by NWS Melbourne, FL

Home | Current Version | Previous Version | Text Only | Print | Product List | Glossary On
Versions: 1 2 3 4 5 6 7 8 9 10 11 12 13 14 15 16 17 18 19 20 21 22 23
000
FTUS42 KMLB 172100 AAA
TAFMCO
TAF AMD
KMCO 172103Z 1721/1818 28008KT P6SM FEW020 BKN250
     FM180000 29004KT P6SM BKN040 OVC080
     FM181400 01004KT P6SM FEW020 SCT150 SCT250=

USA.gov is the U.S. government's official web portal to all federal, state and local government web resources and services.